Time;durP1;ratioP1;P1;durP2;ratioP2;P2;SDS_P1;SDS_P2;PMS_P1;PMS_P2;Temp;Humidity;BMP_temperature;BMP_pressure;BME280_temperature;BME280_humidity;BME280_pressure;Samples;Min_cycle;Max_cycle;Signal;HPM_P1;HPM_P2
2022/01/24 00:02:19;;;;;;;;;56.00;39.00;;;;;;;;5098500;27;45399;-75
2022/01/24 00:04:48;;;;;;;;;51.75;40.50;;;;;;;;5097799;27;45430;-75
2022/01/24 00:07:15;;;;;;;;;47.50;40.50;;;;;;;;5097525;27;45516;-75
2022/01/24 00:09:40;;;;;;;;;40.00;34.00;;;;;;;;5097037;27;46177;-74
2022/01/24 00:12:16;;;;;;;;;45.50;39.00;;;;;;;;5097593;27;45547;-74
2022/01/24 00:15:01;;;;;;;;;53.50;39.00;;;;;;;;5098109;27;45504;-75
2022/01/24 00:17:49;;;;;;;;;44.50;36.75;;;;;;;;5093991;27;45467;-75
2022/01/24 00:28:25;;;;;;;;;46.00;39.00;;;;;;;;5054195;28;45522;-74
2022/01/24 00:30:50;;;;;;;;;43.75;36.25;;;;;;;;5054898;28;46368;-74
2022/01/24 00:33:18;;;;;;;;;41.25;34.00;;;;;;;;5054511;28;45553;-75
2022/01/24 00:35:43;;;;;;;;;54.25;40.50;;;;;;;;5054315;28;45458;-75
2022/01/24 00:38:08;;;;;;;;;42.75;36.00;;;;;;;;5054811;28;45504;-74
2022/01/24 00:40:38;;;;;;;;;44.50;39.50;;;;;;;;5053928;28;46176;-77
2022/01/24 00:43:09;;;;;;;;;42.75;35.00;;;;;;;;5054451;28;45540;-77
2022/01/24 00:45:53;;;;;;;;;44.75;38.00;;;;;;;;5054611;28;45411;-78
2022/01/24 00:56:04;;;;;;;;;48.75;38.25;;;;;;;;5053349;28;45365;-77
2022/01/24 00:58:29;;;;;;;;;57.25;42.25;;;;;;;;5053890;28;45554;-77
2022/01/24 01:00:55;;;;;;;;;50.50;42.00;;;;;;;;5053588;28;45370;-77
2022/01/24 01:03:20;;;;;;;;;50.00;42.50;;;;;;;;5086465;27;45348;-77
2022/01/24 01:18:48;;;;;;;;;56.25;43.00;;;;;;;;5096896;27;45290;-77
2022/01/24 01:21:15;;;;;;;;;58.75;45.25;;;;;;;;5095941;27;46160;-77
2022/01/24 01:23:45;;;;;;;;;57.75;45.75;;;;;;;;5096520;27;45434;-78
2022/01/24 01:26:19;;;;;;;;;59.75;42.75;;;;;;;;5095154;27;45295;-77
2022/01/24 01:28:47;;;;;;;;;61.25;44.25;;;;;;;;5096399;27;45607;-78
2022/01/24 01:31:23;;;;;;;;;58.00;44.75;;;;;;;;5096269;27;46085;-77
2022/01/24 01:52:55;;;;;;;;;53.50;42.50;;;;;;;;5012865;28;45786;-76
2022/01/24 01:55:37;;;;;;;;;55.75;46.25;;;;;;;;5012927;28;45649;-76
2022/01/24 01:58:04;;;;;;;;;58.50;44.00;;;;;;;;5012840;28;45444;-76
2022/01/24 02:00:29;;;;;;;;;62.00;47.75;;;;;;;;5012702;28;45682;-76
2022/01/24 02:02:54;;;;;;;;;54.25;44.00;;;;;;;;5012812;28;45556;-75
2022/01/24 02:05:20;;;;;;;;;61.00;47.25;;;;;;;;5013102;28;45526;-76
2022/01/24 02:07:49;;;;;;;;;65.25;48.00;;;;;;;;5011639;28;45625;-76
2022/01/24 02:10:18;;;;;;;;;62.75;47.50;;;;;;;;5012586;28;45503;-75
2022/01/24 02:12:44;;;;;;;;;64.50;51.75;;;;;;;;5012704;28;45422;-76
2022/01/24 02:15:11;;;;;;;;;62.75;48.00;;;;;;;;5012833;28;45545;-75
2022/01/24 02:17:54;;;;;;;;;64.50;48.50;;;;;;;;5013242;28;45412;-76
2022/01/24 02:20:44;;;;;;;;;64.50;51.25;;;;;;;;5012242;28;46675;-76
2022/01/24 02:25:58;;;;;;;;;65.00;52.00;;;;;;;;5095010;27;45407;-76
2022/01/24 02:28:25;;;;;;;;;57.50;45.75;;;;;;;;5095679;27;45514;-77
2022/01/24 02:33:19;;;;;;;;;62.25;47.25;;;;;;;;5095534;27;46089;-76
2022/01/24 02:35:45;;;;;;;;;59.50;46.50;;;;;;;;5095057;27;45498;-75
2022/01/24 02:38:34;;;;;;;;;59.25;46.50;;;;;;;;5096145;27;45337;-76
2022/01/24 02:49:09;;;;;;;;;58.00;45.00;;;;;;;;5095456;27;45575;-76
2022/01/24 02:51:46;;;;;;;;;58.75;43.25;;;;;;;;5095402;27;45444;-75
2022/01/24 02:54:18;;;;;;;;;55.25;39.00;;;;;;;;5095234;27;47109;-75
2022/01/24 02:56:43;;;;;;;;;55.50;42.75;;;;;;;;5095394;27;45631;-76
2022/01/24 02:59:08;;;;;;;;;50.50;41.25;;;;;;;;5095708;27;45322;-75
2022/01/24 03:01:33;;;;;;;;;55.50;41.75;;;;;;;;5095191;27;45399;-76
2022/01/24 03:03:59;;;;;;;;;45.50;39.25;;;;;;;;5094877;27;45342;-76
2022/01/24 03:06:24;;;;;;;;;52.00;39.00;;;;;;;;5095051;27;45286;-75
2022/01/24 03:08:49;;;;;;;;;53.00;44.00;;;;;;;;5095331;27;45546;-76
2022/01/24 03:11:15;;;;;;;;;56.75;42.50;;;;;;;;5095629;27;45289;-75
2022/01/24 03:13:40;;;;;;;;;50.00;39.75;;;;;;;;5094932;27;47242;-75
2022/01/24 03:16:07;;;;;;;;;53.75;42.25;;;;;;;;5094850;27;45454;-75
2022/01/24 03:18:32;;;;;;;;;45.50;38.75;;;;;;;;5094590;27;45416;-74
2022/01/24 03:20:58;;;;;;;;;47.25;39.75;;;;;;;;5098474;27;45455;-75
2022/01/24 03:23:24;;;;;;;;;45.00;38.75;;;;;;;;5098879;27;46895;-77
2022/01/24 03:25:49;;;;;;;;;48.25;38.25;;;;;;;;5098274;27;45482;-77
2022/01/24 03:28:14;;;;;;;;;59.00;48.00;;;;;;;;5095802;27;45513;-76
2022/01/24 03:30:40;;;;;;;;;55.00;42.25;;;;;;;;5098104;27;45482;-76
2022/01/24 03:33:06;;;;;;;;;52.25;41.50;;;;;;;;5097733;27;45475;-76
2022/01/24 03:35:32;;;;;;;;;38.75;36.00;;;;;;;;5098547;27;45329;-76
2022/01/24 03:37:57;;;;;;;;;41.75;36.75;;;;;;;;5098804;27;45460;-76
2022/01/24 03:40:22;;;;;;;;;49.00;36.50;;;;;;;;5098041;27;45424;-76
2022/01/24 03:42:48;;;;;;;;;47.00;41.75;;;;;;;;5097885;27;46294;-76
2022/01/24 03:45:14;;;;;;;;;57.50;42.75;;;;;;;;5098073;27;45393;-76
2022/01/24 03:48:02;;;;;;;;;48.50;42.00;;;;;;;;5097882;27;45317;-76
2022/01/24 03:50:28;;;;;;;;;54.00;42.75;;;;;;;;5094759;27;45235;-76
2022/01/24 03:52:53;;;;;;;;;50.50;40.00;;;;;;;;5097936;27;46355;-76
2022/01/24 03:55:18;;;;;;;;;47.25;39.50;;;;;;;;5098821;27;45364;-76
2022/01/24 03:57:43;;;;;;;;;46.00;38.75;;;;;;;;5098300;27;47813;-76
2022/01/24 04:00:09;;;;;;;;;42.75;37.50;;;;;;;;5097747;27;45429;-76
2022/01/24 04:02:35;;;;;;;;;45.50;38.00;;;;;;;;5097643;27;47112;-76
2022/01/24 04:05:00;;;;;;;;;45.50;39.50;;;;;;;;5095086;27;45331;-76
2022/01/24 04:07:25;;;;;;;;;47.75;38.00;;;;;;;;5097473;27;45614;-76
2022/01/24 04:09:51;;;;;;;;;46.75;38.00;;;;;;;;5097755;27;45317;-76
2022/01/24 04:12:16;;;;;;;;;38.50;35.75;;;;;;;;5097409;27;46723;-76
2022/01/24 04:15:44;;;;;;;;;40.50;37.25;;;;;;;;5097667;27;45372;-76
2022/01/24 04:17:37;;;;;;;;;43.75;38.25;;;;;;;;5094291;27;45260;-76
2022/01/24 04:22:50;;;;;;;;;44.00;33.75;;;;;;;;5096988;27;45531;-76
2022/01/24 04:25:16;;;;;;;;;45.00;39.25;;;;;;;;5097277;27;45501;-76
2022/01/24 04:27:42;;;;;;;;;47.50;40.00;;;;;;;;5097232;27;45515;-75
2022/01/24 04:30:07;;;;;;;;;39.75;33.75;;;;;;;;5096816;27;45828;-76
2022/01/24 04:32:32;;;;;;;;;40.50;33.75;;;;;;;;5096947;27;49408;-76
2022/01/24 04:34:57;;;;;;;;;51.00;40.50;;;;;;;;5097056;27;45333;-76
2022/01/24 04:37:23;;;;;;;;;44.75;37.25;;;;;;;;5097331;27;45480;-76
2022/01/24 04:39:48;;;;;;;;;47.50;37.50;;;;;;;;5097295;27;45509;-76
2022/01/24 04:42:20;;;;;;;;;43.75;37.25;;;;;;;;5097125;27;45443;-76
2022/01/24 04:52:46;;;;;;;;;45.50;36.25;;;;;;;;5096988;27;45747;-76
2022/01/24 04:55:11;;;;;;;;;44.50;39.00;;;;;;;;5097127;27;45523;-76
2022/01/24 04:57:37;;;;;;;;;49.50;39.00;;;;;;;;5096792;27;45516;-76
2022/01/24 05:00:04;;;;;;;;;49.75;39.75;;;;;;;;5096794;27;45471;-75
2022/01/24 05:02:29;;;;;;;;;39.00;32.00;;;;;;;;5096761;27;46236;-76
2022/01/24 05:04:59;;;;;;;;;51.00;40.50;;;;;;;;5096838;27;45496;-76
2022/01/24 05:07:24;;;;;;;;;46.50;38.00;;;;;;;;5096611;27;45673;-77
2022/01/24 05:12:32;;;;;;;;;45.00;38.00;;;;;;;;5102167;27;45500;-76
2022/01/24 05:23:28;;;;;;;;;47.00;39.25;;;;;;;;5119586;27;45033;-76
2022/01/24 05:25:54;;;;;;;;;52.00;39.50;;;;;;;;5105333;27;45326;-76
2022/01/24 05:28:20;;;;;;;;;50.75;40.25;;;;;;;;5097385;27;45422;-76
2022/01/24 05:30:45;;;;;;;;;46.25;39.00;;;;;;;;5097092;27;45404;-76
2022/01/24 05:33:10;;;;;;;;;52.75;38.75;;;;;;;;5097446;27;46216;-77
2022/01/24 05:35:36;;;;;;;;;51.75;41.75;;;;;;;;5096868;27;45497;-74
2022/01/24 05:38:01;;;;;;;;;54.50;39.00;;;;;;;;5097469;27;45529;-74
2022/01/24 05:40:27;;;;;;;;;61.75;45.00;;;;;;;;5095910;27;45398;-74
2022/01/24 05:42:52;;;;;;;;;48.75;41.50;;;;;;;;5094971;27;45599;-74
2022/01/24 05:45:17;;;;;;;;;46.75;41.00;;;;;;;;5095803;27;45412;-74
2022/01/24 05:47:43;;;;;;;;;58.00;49.67;;;;;;;;5094326;27;45338;-74
2022/01/24 05:50:09;;;;;;;;;59.25;46.75;;;;;;;;5093989;27;45401;-75
2022/01/24 05:52:34;;;;;;;;;52.75;41.00;;;;;;;;5094641;27;46944;-77
2022/01/24 05:54:59;;;;;;;;;57.25;40.25;;;;;;;;5095395;27;45491;-77
2022/01/24 05:57:24;;;;;;;;;40.75;38.25;;;;;;;;5095671;27;45289;-77
2022/01/24 05:59:50;;;;;;;;;54.25;41.75;;;;;;;;5095403;27;45220;-77
2022/01/24 06:02:15;;;;;;;;;58.00;44.25;;;;;;;;5096520;27;46053;-77
2022/01/24 06:04:40;;;;;;;;;34.75;34.25;;;;;;;;5095702;27;45593;-76
2022/01/24 06:07:05;;;;;;;;;51.75;43.25;;;;;;;;5095726;27;45532;-76
2022/01/24 06:09:31;;;;;;;;;52.75;41.00;;;;;;;;5094877;27;45478;-76
2022/01/24 06:11:56;;;;;;;;;59.25;44.25;;;;;;;;5078052;27;46800;-77
2022/01/24 06:14:21;;;;;;;;;52.00;39.00;;;;;;;;5095366;27;45256;-77
2022/01/24 06:16:47;;;;;;;;;51.50;41.25;;;;;;;;5095598;27;45182;-76
2022/01/24 06:19:12;;;;;;;;;50.75;40.00;;;;;;;;5093842;27;45572;-76
2022/01/24 06:21:37;;;;;;;;;55.75;43.75;;;;;;;;5093998;27;47194;-77
2022/01/24 06:24:03;;;;;;;;;56.00;39.75;;;;;;;;5094240;27;45325;-76
2022/01/24 06:26:29;;;;;;;;;48.50;41.00;;;;;;;;5095037;27;45499;-76
2022/01/24 06:28:54;;;;;;;;;51.50;40.75;;;;;;;;5094544;27;45502;-76
2022/01/24 06:31:19;;;;;;;;;57.50;40.75;;;;;;;;5098769;27;46305;-77
2022/01/24 06:33:45;;;;;;;;;53.25;40.00;;;;;;;;5095468;27;45514;-76
2022/01/24 06:36:10;;;;;;;;;64.25;46.75;;;;;;;;5095285;27;45363;-78
2022/01/24 06:38:35;;;;;;;;;61.00;43.50;;;;;;;;5095173;27;45522;-77
2022/01/24 06:41:00;;;;;;;;;61.00;43.25;;;;;;;;5094017;27;46223;-78
2022/01/24 06:43:26;;;;;;;;;52.75;42.50;;;;;;;;5096161;27;45460;-77
2022/01/24 06:45:51;;;;;;;;;64.00;45.25;;;;;;;;5094300;27;45337;-77
2022/01/24 06:48:16;;;;;;;;;49.25;40.00;;;;;;;;5094562;27;45363;-78
2022/01/24 06:50:42;;;;;;;;;51.00;42.00;;;;;;;;5093666;27;45615;-77
2022/01/24 06:53:07;;;;;;;;;52.25;41.50;;;;;;;;5093776;27;45261;-78
2022/01/24 06:55:32;;;;;;;;;54.00;45.25;;;;;;;;5093451;27;45294;-78
2022/01/24 06:57:57;;;;;;;;;54.50;43.25;;;;;;;;5093959;27;45258;-73
2022/01/24 07:00:26;;;;;;;;;54.00;43.00;;;;;;;;5093670;27;46153;-75
2022/01/24 07:02:52;;;;;;;;;54.00;42.25;;;;;;;;5094120;27;45398;-76
2022/01/24 07:05:17;;;;;;;;;48.50;41.00;;;;;;;;5094867;27;45411;-76
2022/01/24 07:07:42;;;;;;;;;61.00;47.75;;;;;;;;5092906;27;45287;-75
2022/01/24 07:10:07;;;;;;;;;51.50;41.50;;;;;;;;5092490;27;46286;-76
2022/01/24 07:12:33;;;;;;;;;53.25;39.25;;;;;;;;5092895;27;45400;-75
2022/01/24 07:15:04;;;;;;;;;56.00;41.00;;;;;;;;5093863;27;45381;-75
2022/01/24 07:17:45;;;;;;;;;54.25;42.50;;;;;;;;5090321;27;45365;-78
2022/01/24 07:20:10;;;;;;;;;54.75;42.50;;;;;;;;5092798;27;46272;-83
2022/01/24 07:22:35;;;;;;;;;49.00;39.50;;;;;;;;5093203;27;45451;-76
2022/01/24 07:25:01;;;;;;;;;63.75;48.50;;;;;;;;5091950;27;45313;-78
2022/01/24 07:27:26;;;;;;;;;61.75;48.00;;;;;;;;5093223;27;45466;-77
2022/01/24 07:29:51;;;;;;;;;56.25;43.00;;;;;;;;5093557;27;45983;-77
2022/01/24 07:32:16;;;;;;;;;57.00;46.00;;;;;;;;5090047;27;45412;-78
2022/01/24 07:34:42;;;;;;;;;60.25;47.75;;;;;;;;5092663;27;45445;-77
2022/01/24 07:37:07;;;;;;;;;49.50;39.25;;;;;;;;5092128;27;45417;-77
2022/01/24 07:39:32;;;;;;;;;58.25;42.00;;;;;;;;5091816;27;47174;-76
2022/01/24 07:42:03;;;;;;;;;52.00;38.75;;;;;;;;5093177;27;45468;-77
2022/01/24 07:44:28;;;;;;;;;50.00;38.25;;;;;;;;5090715;27;45252;-78
2022/01/24 07:46:53;;;;;;;;;57.00;41.00;;;;;;;;5093025;27;46515;-77
2022/01/24 07:49:18;;;;;;;;;55.75;40.50;;;;;;;;5092587;27;46260;-78
2022/01/24 07:51:44;;;;;;;;;58.25;45.25;;;;;;;;5095589;27;45466;-75
2022/01/24 07:54:09;;;;;;;;;45.00;37.25;;;;;;;;5096238;27;45465;-75
2022/01/24 07:56:34;;;;;;;;;59.25;44.50;;;;;;;;5092305;27;45458;-74
2022/01/24 07:59:00;;;;;;;;;50.00;43.75;;;;;;;;5092376;27;46071;-74
2022/01/24 08:01:26;;;;;;;;;53.25;43.75;;;;;;;;5091618;27;45348;-76
2022/01/24 08:03:51;;;;;;;;;60.50;47.25;;;;;;;;5092515;27;45376;-76
2022/01/24 08:06:18;;;;;;;;;58.00;44.50;;;;;;;;5093140;27;45318;-79
2022/01/24 08:08:43;;;;;;;;;61.00;40.25;;;;;;;;5095338;27;46097;-77
2022/01/24 08:11:08;;;;;;;;;54.50;42.00;;;;;;;;5093775;27;45379;-78
2022/01/24 08:13:34;;;;;;;;;49.75;39.00;;;;;;;;5096277;27;45425;-78
2022/01/24 08:15:59;;;;;;;;;52.25;42.25;;;;;;;;5098350;27;45445;-78
2022/01/24 08:18:24;;;;;;;;;61.25;42.50;;;;;;;;5096202;27;46564;-77
2022/01/24 08:20:50;;;;;;;;;59.50;46.00;;;;;;;;5096797;27;45463;-78
2022/01/24 08:23:17;;;;;;;;;59.00;43.75;;;;;;;;5096570;27;45525;-76
2022/01/24 08:25:42;;;;;;;;;56.50;42.75;;;;;;;;5096261;27;45540;-79
2022/01/24 08:28:07;;;;;;;;;51.00;42.75;;;;;;;;5096021;27;46047;-80
2022/01/24 08:30:33;;;;;;;;;57.75;42.25;;;;;;;;5095611;27;45400;-78
2022/01/24 08:32:58;;;;;;;;;58.00;41.75;;;;;;;;5095331;27;45973;-78
2022/01/24 08:35:24;;;;;;;;;52.50;41.25;;;;;;;;5097205;27;45368;-77
2022/01/24 08:37:50;;;;;;;;;55.50;45.50;;;;;;;;5095231;27;46047;-78
2022/01/24 08:40:25;;;;;;;;;56.00;44.00;;;;;;;;5095410;27;45809;-79
2022/01/24 08:43:10;;;;;;;;;57.75;44.00;;;;;;;;5095792;27;45415;-79
2022/01/24 08:45:50;;;;;;;;;49.50;41.00;;;;;;;;5095835;27;45451;-78
2022/01/24 08:48:17;;;;;;;;;51.50;41.75;;;;;;;;5094908;27;45284;-79
2022/01/24 08:50:45;;;;;;;;;46.50;39.75;;;;;;;;5095535;27;45289;-79
2022/01/24 08:53:11;;;;;;;;;57.00;44.75;;;;;;;;5094884;27;45418;-78
2022/01/24 08:55:37;;;;;;;;;58.75;46.25;;;;;;;;5095311;27;45593;-78
2022/01/24 08:58:03;;;;;;;;;49.00;38.75;;;;;;;;5095070;27;45953;-78
2022/01/24 09:00:28;;;;;;;;;58.25;45.00;;;;;;;;5094948;27;45442;-78
2022/01/24 09:02:54;;;;;;;;;49.25;39.00;;;;;;;;5094532;27;45754;-78
2022/01/24 09:05:22;;;;;;;;;46.75;40.00;;;;;;;;5095482;27;45354;-78
2022/01/24 09:07:47;;;;;;;;;55.75;45.50;;;;;;;;5094621;27;47266;-78
2022/01/24 09:10:12;;;;;;;;;54.00;40.25;;;;;;;;5094856;27;45532;-77
2022/01/24 09:12:38;;;;;;;;;53.25;42.50;;;;;;;;5094685;27;45543;-80
2022/01/24 09:15:04;;;;;;;;;50.75;42.75;;;;;;;;5094758;27;47229;-79
2022/01/24 09:17:29;;;;;;;;;49.25;40.50;;;;;;;;5094341;27;45982;-78
2022/01/24 09:19:54;;;;;;;;;61.50;48.00;;;;;;;;5094370;27;45507;-79
2022/01/24 09:22:19;;;;;;;;;55.50;43.25;;;;;;;;5094448;27;45463;-78
2022/01/24 09:24:45;;;;;;;;;50.75;39.75;;;;;;;;5094655;27;45417;-79
2022/01/24 09:27:10;;;;;;;;;48.25;40.25;;;;;;;;5090362;27;48070;-79
2022/01/24 09:29:35;;;;;;;;;51.00;41.25;;;;;;;;5096761;27;45386;-77
2022/01/24 09:32:00;;;;;;;;;53.25;40.75;;;;;;;;5093193;27;45562;-76
2022/01/24 09:34:25;;;;;;;;;54.50;46.00;;;;;;;;5094644;27;45443;-77
2022/01/24 09:36:51;;;;;;;;;52.00;43.25;;;;;;;;5099688;27;45923;-77
2022/01/24 09:39:16;;;;;;;;;58.00;41.50;;;;;;;;5094594;27;45498;-78
2022/01/24 09:41:42;;;;;;;;;43.50;37.75;;;;;;;;5094818;27;45380;-78
2022/01/24 09:44:07;;;;;;;;;47.75;36.75;;;;;;;;5095118;27;45446;-78
2022/01/24 09:46:36;;;;;;;;;54.50;43.00;;;;;;;;5092703;27;46267;-78
2022/01/24 09:49:02;;;;;;;;;45.50;40.50;;;;;;;;5093931;27;45400;-78
2022/01/24 09:51:27;;;;;;;;;55.75;43.50;;;;;;;;5092973;27;45579;-78
2022/01/24 09:53:52;;;;;;;;;51.00;40.50;;;;;;;;5093826;27;45444;-78
2022/01/24 09:56:18;;;;;;;;;45.75;38.50;;;;;;;;5093811;27;46277;-78
2022/01/24 09:58:44;;;;;;;;;51.25;43.00;;;;;;;;5093271;27;45466;-78
2022/01/24 10:01:09;;;;;;;;;54.00;40.25;;;;;;;;5093514;27;45334;-78
2022/01/24 10:03:36;;;;;;;;;53.50;40.50;;;;;;;;5093436;27;45415;-77
2022/01/24 10:06:01;;;;;;;;;50.50;41.75;;;;;;;;5093570;27;46083;-77
2022/01/24 10:08:26;;;;;;;;;52.00;40.25;;;;;;;;5093968;27;45413;-78
2022/01/24 10:10:54;;;;;;;;;53.00;42.50;;;;;;;;5093873;27;45421;-78
2022/01/24 10:16:25;;;;;;;;;53.50;41.50;;;;;;;;5093176;27;45401;-78
2022/01/24 10:19:09;;;;;;;;;46.50;39.00;;;;;;;;5093372;27;45444;-78
2022/01/24 10:21:44;;;;;;;;;51.00;40.75;;;;;;;;5094551;27;45659;-77
2022/01/24 10:24:11;;;;;;;;;52.25;42.75;;;;;;;;5094341;27;45463;-77
2022/01/24 10:26:36;;;;;;;;;52.25;39.00;;;;;;;;5093736;27;47021;-77
2022/01/24 10:29:08;;;;;;;;;46.25;35.00;;;;;;;;5093098;27;45424;-77
2022/01/24 10:31:33;;;;;;;;;53.50;42.50;;;;;;;;5090531;27;45322;-78
2022/01/24 10:34:23;;;;;;;;;51.00;40.50;;;;;;;;5093177;27;45326;-77
2022/01/24 10:36:51;;;;;;;;;52.50;40.50;;;;;;;;5093128;27;45400;-77
2022/01/24 10:44:48;;;;;;;;;64.25;48.25;;;;;;;;5092697;27;45333;-77
2022/01/24 10:47:16;;;;;;;;;52.50;42.00;;;;;;;;5093809;27;46159;-77
2022/01/24 10:49:44;;;;;;;;;51.75;43.00;;;;;;;;5095561;27;46903;-77
2022/01/24 10:52:13;;;;;;;;;51.75;42.50;;;;;;;;5114889;27;45525;-79
2022/01/24 10:54:39;;;;;;;;;55.25;44.50;;;;;;;;5116701;27;45458;-78
2022/01/24 10:57:04;;;;;;;;;51.00;41.75;;;;;;;;5117485;27;45325;-78
2022/01/24 10:59:29;;;;;;;;;29.00;18.75;;;;;;;;5115700;27;45439;-79
2022/01/24 11:01:56;;;;;;;;;53.25;43.00;;;;;;;;5115092;27;45404;-79
2022/01/24 11:04:24;;;;;;;;;57.50;45.75;;;;;;;;5114601;27;45417;-77
2022/01/24 11:06:50;;;;;;;;;50.75;42.00;;;;;;;;5114290;27;46343;-78
2022/01/24 11:09:15;;;;;;;;;60.50;47.75;;;;;;;;5094560;27;45453;-78
2022/01/24 11:11:42;;;;;;;;;48.75;38.75;;;;;;;;5114384;27;45444;-78
2022/01/24 11:14:09;;;;;;;;;52.75;44.50;;;;;;;;5115386;27;45375;-81
2022/01/24 11:16:34;;;;;;;;;53.75;44.00;;;;;;;;5116990;27;46213;-76
2022/01/24 11:19:01;;;;;;;;;50.50;42.75;;;;;;;;5113371;27;45502;-77
2022/01/24 11:21:33;;;;;;;;;56.75;45.25;;;;;;;;5113897;27;45369;-77
2022/01/24 11:24:00;;;;;;;;;51.00;42.00;;;;;;;;5098198;27;45512;-77
2022/01/24 11:26:26;;;;;;;;;51.00;39.50;;;;;;;;5112011;27;47110;-75
2022/01/24 11:28:51;;;;;;;;;62.00;46.75;;;;;;;;5116938;27;45654;-77
2022/01/24 11:31:20;;;;;;;;;54.50;41.25;;;;;;;;5113188;27;45852;-77
2022/01/24 11:33:52;;;;;;;;;44.00;37.00;;;;;;;;5112934;27;45587;-75
2022/01/24 11:36:17;;;;;;;;;55.00;42.50;;;;;;;;5113365;27;47226;-75
2022/01/24 11:38:43;;;;;;;;;50.75;40.00;;;;;;;;5112424;27;45221;-78
2022/01/24 11:41:13;;;;;;;;;52.75;44.00;;;;;;;;5115943;27;45447;-77
2022/01/24 11:43:43;;;;;;;;;51.25;42.25;;;;;;;;5115312;27;45533;-75
2022/01/24 11:46:30;;;;;;;;;34.50;33.50;;;;;;;;5115303;27;46271;-74
2022/01/24 11:49:07;;;;;;;;;53.25;43.00;;;;;;;;5115997;27;45482;-73
2022/01/24 11:51:33;;;;;;;;;47.00;37.50;;;;;;;;5114736;27;45549;-72
2022/01/24 11:53:59;;;;;;;;;57.00;48.00;;;;;;;;5100013;27;45452;-77
2022/01/24 11:56:26;;;;;;;;;37.00;33.50;;;;;;;;5097813;27;47320;-75
2022/01/24 11:58:52;;;;;;;;;49.25;40.50;;;;;;;;5115568;27;45554;-76
2022/01/24 12:01:33;;;;;;;;;52.00;40.50;;;;;;;;5116465;27;45518;-76
2022/01/24 12:03:58;;;;;;;;;43.75;36.25;;;;;;;;5116405;27;45416;-77
2022/01/24 12:06:24;;;;;;;;;37.50;33.25;;;;;;;;5116089;27;46430;-75
2022/01/24 12:08:59;;;;;;;;;37.25;33.00;;;;;;;;5116680;27;45414;-75
2022/01/24 12:11:30;;;;;;;;;43.00;35.25;;;;;;;;5113631;27;45431;-76
2022/01/24 12:14:01;;;;;;;;;45.00;37.25;;;;;;;;5114248;27;45508;-76
2022/01/24 12:16:34;;;;;;;;;44.50;38.00;;;;;;;;5115178;27;46205;-75
2022/01/24 12:19:00;;;;;;;;;36.50;32.75;;;;;;;;5115440;27;45406;-73
2022/01/24 12:21:26;;;;;;;;;46.25;38.25;;;;;;;;5115714;27;45449;-74
2022/01/24 12:23:55;;;;;;;;;47.25;39.50;;;;;;;;5116593;27;45493;-76
2022/01/24 12:26:22;;;;;;;;;40.25;33.00;;;;;;;;5117021;27;45290;-76
2022/01/24 12:28:58;;;;;;;;;43.50;35.25;;;;;;;;5115322;27;45479;-76
2022/01/24 12:31:32;;;;;;;;;44.75;39.50;;;;;;;;5115683;27;45313;-77
2022/01/24 12:33:59;;;;;;;;;39.75;33.75;;;;;;;;5117054;27;45507;-76
2022/01/24 12:36:37;;;;;;;;;36.00;35.00;;;;;;;;5116513;27;46565;-75
2022/01/24 12:39:08;;;;;;;;;49.50;39.25;;;;;;;;5100132;27;45274;-77
2022/01/24 12:41:38;;;;;;;;;55.50;43.25;;;;;;;;5116350;27;45356;-78
2022/01/24 12:46:29;;;;;;;;;32.25;31.00;;;;;;;;5115818;27;46179;-76
2022/01/24 12:48:56;;;;;;;;;39.50;33.75;;;;;;;;5116033;27;45590;-76
2022/01/24 12:51:22;;;;;;;;;45.25;36.25;;;;;;;;5115249;27;45409;-75
2022/01/24 12:53:48;;;;;;;;;40.50;35.25;;;;;;;;5116240;27;46010;-75
2022/01/24 12:56:15;;;;;;;;;34.25;31.25;;;;;;;;5115122;27;47067;-77
2022/01/24 12:58:41;;;;;;;;;35.25;30.00;;;;;;;;5115227;27;45259;-76
2022/01/24 13:01:37;;;;;;;;;42.00;35.75;;;;;;;;5115774;27;45316;-76
2022/01/24 13:04:11;;;;;;;;;40.75;33.75;;;;;;;;5102273;27;45429;-75
2022/01/24 13:06:37;;;;;;;;;34.00;29.50;;;;;;;;5115413;27;47425;-75
2022/01/24 13:09:26;;;;;;;;;35.25;30.75;;;;;;;;5114017;27;45303;-78
2022/01/24 13:11:55;;;;;;;;;36.25;30.00;;;;;;;;5114782;27;45275;-76
2022/01/24 13:14:29;;;;;;;;;31.00;28.00;;;;;;;;5116708;27;45454;-76
2022/01/24 13:25:10;;;;;;;;;33.25;28.50;;;;;;;;5115004;27;45388;-77
2022/01/24 13:27:36;;;;;;;;;29.25;26.25;;;;;;;;5114458;27;47283;-77
2022/01/24 13:30:06;;;;;;;;;34.50;32.25;;;;;;;;5115592;27;45519;-76
2022/01/24 13:32:46;;;;;;;;;31.50;29.00;;;;;;;;5115903;27;45403;-76
2022/01/24 13:35:23;;;;;;;;;37.00;33.25;;;;;;;;5114116;27;45323;-75
2022/01/24 13:37:49;;;;;;;;;35.75;33.00;;;;;;;;5115038;27;46172;-77
2022/01/24 13:40:14;;;;;;;;;36.00;31.25;;;;;;;;5110648;27;45714;-77
2022/01/24 13:42:39;;;;;;;;;43.75;35.25;;;;;;;;5112797;27;45426;-77
2022/01/24 13:45:05;;;;;;;;;34.75;29.50;;;;;;;;5114487;27;45364;-77
2022/01/24 13:47:30;;;;;;;;;30.75;26.00;;;;;;;;5115263;27;46286;-78
2022/01/24 13:49:56;;;;;;;;;39.50;33.00;;;;;;;;5114872;27;45466;-78
2022/01/24 13:52:23;;;;;;;;;29.75;28.00;;;;;;;;5114866;27;45379;-76
2022/01/24 13:54:49;;;;;;;;;34.75;31.00;;;;;;;;5114240;27;45489;-76
2022/01/24 13:57:18;;;;;;;;;36.75;30.00;;;;;;;;5114934;27;45908;-77
2022/01/24 13:59:43;;;;;;;;;37.50;31.75;;;;;;;;5096524;27;45609;-77
2022/01/24 14:02:12;;;;;;;;;33.00;29.25;;;;;;;;5116770;27;45275;-76
2022/01/24 14:04:41;;;;;;;;;32.50;29.00;;;;;;;;5113364;27;45410;-76
2022/01/24 14:07:06;;;;;;;;;31.25;29.50;;;;;;;;5114162;27;45426;-77
2022/01/24 14:09:36;;;;;;;;;31.75;25.50;;;;;;;;5114202;27;45317;-77
2022/01/24 14:12:03;;;;;;;;;30.25;22.75;;;;;;;;5110987;27;45405;-77
2022/01/24 14:14:41;;;;;;;;;31.00;30.00;;;;;;;;5115140;27;45346;-75
2022/01/24 14:19:42;;;;;;;;;35.00;30.50;;;;;;;;5114169;27;45346;-77
2022/01/24 14:22:08;;;;;;;;;32.75;28.25;;;;;;;;5113804;27;45161;-77
2022/01/24 14:24:48;;;;;;;;;32.25;26.50;;;;;;;;5113804;27;47802;-77
2022/01/24 14:27:14;;;;;;;;;30.00;29.75;;;;;;;;5108853;27;45485;-76
2022/01/24 14:29:40;;;;;;;;;36.50;30.75;;;;;;;;5114120;27;45812;-76
2022/01/24 14:32:11;;;;;;;;;40.25;33.25;;;;;;;;5114944;27;45229;-77
2022/01/24 14:34:36;;;;;;;;;27.50;27.50;;;;;;;;5114993;27;45432;-76
2022/01/24 14:37:05;;;;;;;;;37.50;33.50;;;;;;;;5113201;27;45380;-77
2022/01/24 14:39:31;;;;;;;;;33.50;32.00;;;;;;;;5113760;27;45402;-77
2022/01/24 14:41:57;;;;;;;;;35.50;29.25;;;;;;;;5113889;27;45379;-78
2022/01/24 14:47:07;;;;;;;;;36.00;33.50;;;;;;;;5117030;27;45883;-75
2022/01/24 14:49:33;;;;;;;;;28.00;27.00;;;;;;;;5117689;27;45303;-77
2022/01/24 14:52:02;;;;;;;;;28.00;26.75;;;;;;;;5108370;27;45329;-74
2022/01/24 14:54:30;;;;;;;;;26.50;26.00;;;;;;;;5118616;27;45442;-77
2022/01/24 14:56:58;;;;;;;;;31.00;27.00;;;;;;;;5112703;27;45438;-76
2022/01/24 14:59:24;;;;;;;;;24.75;24.00;;;;;;;;5095514;27;45281;-73
2022/01/24 15:01:49;;;;;;;;;34.25;28.00;;;;;;;;5112920;27;45246;-73
2022/01/24 15:04:14;;;;;;;;;30.50;25.00;;;;;;;;5113702;27;45531;-73
2022/01/24 15:06:40;;;;;;;;;32.75;32.00;;;;;;;;5112448;27;45526;-80
2022/01/24 15:09:13;;;;;;;;;34.00;28.00;;;;;;;;5112941;27;45351;-77
2022/01/24 15:11:40;;;;;;;;;29.75;28.50;;;;;;;;5113393;27;45421;-78
2022/01/24 15:27:38;;;;;;;;;38.25;28.50;;;;;;;;5116130;27;45971;-77
2022/01/24 15:30:05;;;;;;;;;31.50;28.75;;;;;;;;5117227;27;45304;-75
2022/01/24 15:32:30;;;;;;;;;32.50;25.75;;;;;;;;5098526;27;45329;-77
2022/01/24 15:34:56;;;;;;;;;33.25;30.50;;;;;;;;5117108;27;45278;-74
2022/01/24 15:37:21;;;;;;;;;31.50;29.75;;;;;;;;5116222;27;46203;-78
2022/01/24 15:39:46;;;;;;;;;30.00;27.50;;;;;;;;5115852;27;45422;-76
2022/01/24 15:42:18;;;;;;;;;25.75;19.25;;;;;;;;5097460;27;45524;-77
2022/01/24 15:49:59;;;;;;;;;26.75;25.25;;;;;;;;5115982;27;45393;-78
2022/01/24 15:52:25;;;;;;;;;32.00;26.75;;;;;;;;5096223;27;45282;-77
2022/01/24 15:54:53;;;;;;;;;35.50;30.00;;;;;;;;5116815;27;45258;-76
2022/01/24 16:00:03;;;;;;;;;27.50;24.25;;;;;;;;5102422;27;45257;-73
2022/01/24 16:02:28;;;;;;;;;30.75;27.25;;;;;;;;5117457;27;45277;-73
2022/01/24 16:04:53;;;;;;;;;33.75;31.25;;;;;;;;5116328;27;47306;-73
2022/01/24 16:07:19;;;;;;;;;37.50;34.25;;;;;;;;5115947;27;46950;-74
2022/01/24 16:09:44;;;;;;;;;32.50;27.00;;;;;;;;5116460;27;45332;-73
2022/01/24 16:12:10;;;;;;;;;29.50;24.00;;;;;;;;5116484;27;45483;-74
2022/01/24 16:14:35;;;;;;;;;42.50;33.50;;;;;;;;5115725;27;45426;-77
2022/01/24 16:17:03;;;;;;;;;41.50;35.75;;;;;;;;5115196;27;46395;-76
2022/01/24 16:19:30;;;;;;;;;37.75;32.75;;;;;;;;5115410;27;45779;-78
2022/01/24 16:22:15;;;;;;;;;43.50;34.50;;;;;;;;5115715;27;45462;-78
2022/01/24 16:27:11;;;;;;;;;42.25;34.25;;;;;;;;5115523;27;45993;-79
2022/01/24 16:29:37;;;;;;;;;43.50;35.50;;;;;;;;5116007;27;45348;-79
2022/01/24 16:32:03;;;;;;;;;45.25;36.75;;;;;;;;5116384;27;45400;-79